sensor_id;sensor_type;location;lat;lon;timestamp;P1;durP1;ratioP1;P2;durP2;ratioP2
63959;SDS011;50136;51.374;0.096;2022-08-06T00:09:21;4.70;;;1.50;;
63959;SDS011;50136;51.374;0.096;2022-08-06T00:19:24;4.72;;;1.92;;
63959;SDS011;50136;51.374;0.096;2022-08-06T00:29:46;4.03;;;1.10;;
63959;SDS011;50136;51.374;0.096;2022-08-06T00:39:57;1.93;;;0.80;;
63959;SDS011;50136;51.374;0.096;2022-08-06T00:49:59;4.03;;;1.67;;
63959;SDS011;50136;51.374;0.096;2022-08-06T01:00:04;3.20;;;1.30;;
63959;SDS011;50136;51.374;0.096;2022-08-06T01:10:28;3.97;;;2.05;;
63959;SDS011;50136;51.374;0.096;2022-08-06T01:20:47;6.80;;;3.08;;
63959;SDS011;50136;51.374;0.096;2022-08-06T01:31:19;6.80;;;2.50;;
63959;SDS011;50136;51.374;0.096;2022-08-06T01:41:30;8.63;;;3.17;;
63959;SDS011;50136;51.374;0.096;2022-08-06T01:51:57;6.97;;;3.10;;
63959;SDS011;50136;51.374;0.096;2022-08-06T02:02:21;9.88;;;4.30;;
63959;SDS011;50136;51.374;0.096;2022-08-06T02:12:32;5.63;;;4.40;;
63959;SDS011;50136;51.374;0.096;2022-08-06T02:22:40;4.80;;;3.42;;
63959;SDS011;50136;51.374;0.096;2022-08-06T02:32:44;10.07;;;3.28;;
63959;SDS011;50136;51.374;0.096;2022-08-06T02:42:48;7.82;;;4.07;;
63959;SDS011;50136;51.374;0.096;2022-08-06T02:53:01;7.25;;;4.25;;
63959;SDS011;50136;51.374;0.096;2022-08-06T03:03:23;8.45;;;4.47;;
63959;SDS011;50136;51.374;0.096;2022-08-06T03:13:37;6.63;;;4.20;;
63959;SDS011;50136;51.374;0.096;2022-08-06T03:23:39;5.43;;;4.15;;
63959;SDS011;50136;51.374;0.096;2022-08-06T03:33:44;8.02;;;4.07;;
63959;SDS011;50136;51.374;0.096;2022-08-06T03:43:54;5.80;;;4.20;;
63959;SDS011;50136;51.374;0.096;2022-08-06T04:04:08;6.43;;;4.72;;
63959;SDS011;50136;51.374;0.096;2022-08-06T04:14:28;7.60;;;4.35;;
63959;SDS011;50136;51.374;0.096;2022-08-06T04:24:30;6.85;;;4.07;;
63959;SDS011;50136;51.374;0.096;2022-08-06T04:45:39;8.05;;;4.72;;
63959;SDS011;50136;51.374;0.096;2022-08-06T04:56:02;8.05;;;4.85;;
63959;SDS011;50136;51.374;0.096;2022-08-06T05:06:08;5.78;;;4.68;;
63959;SDS011;50136;51.374;0.096;2022-08-06T05:16:13;10.40;;;5.35;;
63959;SDS011;50136;51.374;0.096;2022-08-06T05:26:18;8.32;;;5.15;;
63959;SDS011;50136;51.374;0.096;2022-08-06T05:36:26;14.07;;;6.20;;
63959;SDS011;50136;51.374;0.096;2022-08-06T05:46:33;7.00;;;4.95;;
63959;SDS011;50136;51.374;0.096;2022-08-06T05:56:42;6.63;;;5.38;;
63959;SDS011;50136;51.374;0.096;2022-08-06T06:06:46;16.67;;;9.45;;
63959;SDS011;50136;51.374;0.096;2022-08-06T06:16:58;11.93;;;9.17;;
63959;SDS011;50136;51.374;0.096;2022-08-06T06:27:22;15.25;;;9.65;;
63959;SDS011;50136;51.374;0.096;2022-08-06T06:37:46;15.02;;;10.18;;
63959;SDS011;50136;51.374;0.096;2022-08-06T06:47:58;13.65;;;9.63;;
63959;SDS011;50136;51.374;0.096;2022-08-06T06:58:12;18.75;;;10.23;;
63959;SDS011;50136;51.374;0.096;2022-08-06T07:08:26;14.80;;;9.95;;
63959;SDS011;50136;51.374;0.096;2022-08-06T07:18:42;18.50;;;11.25;;
63959;SDS011;50136;51.374;0.096;2022-08-06T07:28:55;16.33;;;10.93;;
63959;SDS011;50136;51.374;0.096;2022-08-06T07:39:05;19.45;;;11.35;;
63959;SDS011;50136;51.374;0.096;2022-08-06T07:49:16;16.88;;;11.00;;
63959;SDS011;50136;51.374;0.096;2022-08-06T07:59:32;10.95;;;8.73;;
63959;SDS011;50136;51.374;0.096;2022-08-06T08:09:36;12.82;;;9.45;;
63959;SDS011;50136;51.374;0.096;2022-08-06T08:20:01;12.32;;;8.82;;
63959;SDS011;50136;51.374;0.096;2022-08-06T08:30:17;13.90;;;8.18;;
63959;SDS011;50136;51.374;0.096;2022-08-06T08:40:19;11.80;;;7.68;;
63959;SDS011;50136;51.374;0.096;2022-08-06T08:50:25;12.05;;;6.93;;
63959;SDS011;50136;51.374;0.096;2022-08-06T09:00:29;11.90;;;5.88;;
63959;SDS011;50136;51.374;0.096;2022-08-06T09:10:33;13.77;;;6.40;;
63959;SDS011;50136;51.374;0.096;2022-08-06T09:20:38;9.48;;;6.30;;
63959;SDS011;50136;51.374;0.096;2022-08-06T09:30:48;8.18;;;5.97;;
63959;SDS011;50136;51.374;0.096;2022-08-06T09:41:04;9.93;;;6.03;;
63959;SDS011;50136;51.374;0.096;2022-08-06T09:51:12;10.02;;;6.10;;
63959;SDS011;50136;51.374;0.096;2022-08-06T10:01:43;9.20;;;5.57;;
63959;SDS011;50136;51.374;0.096;2022-08-06T10:11:52;8.55;;;5.05;;
63959;SDS011;50136;51.374;0.096;2022-08-06T10:21:54;5.95;;;4.70;;
63959;SDS011;50136;51.374;0.096;2022-08-06T10:31:59;6.18;;;4.93;;
63959;SDS011;50136;51.374;0.096;2022-08-06T10:42:02;6.03;;;4.72;;
63959;SDS011;50136;51.374;0.096;2022-08-06T10:52:23;6.25;;;4.18;;
63959;SDS011;50136;51.374;0.096;2022-08-06T11:02:40;6.75;;;4.82;;
63959;SDS011;50136;51.374;0.096;2022-08-06T11:13:07;6.38;;;4.95;;
63959;SDS011;50136;51.374;0.096;2022-08-06T11:23:24;6.10;;;3.95;;
63959;SDS011;50136;51.374;0.096;2022-08-06T11:44:09;8.63;;;5.07;;
63959;SDS011;50136;51.374;0.096;2022-08-06T11:54:18;8.48;;;5.07;;
63959;SDS011;50136;51.374;0.096;2022-08-06T12:04:40;10.77;;;6.45;;
63959;SDS011;50136;51.374;0.096;2022-08-06T12:14:45;6.57;;;4.13;;
63959;SDS011;50136;51.374;0.096;2022-08-06T12:24:55;5.40;;;4.55;;
63959;SDS011;50136;51.374;0.096;2022-08-06T12:35:14;7.03;;;4.43;;
63959;SDS011;50136;51.374;0.096;2022-08-06T12:45:19;7.57;;;5.28;;
63959;SDS011;50136;51.374;0.096;2022-08-06T12:55:43;6.25;;;4.05;;
63959;SDS011;50136;51.374;0.096;2022-08-06T13:05:46;5.60;;;3.85;;
63959;SDS011;50136;51.374;0.096;2022-08-06T13:16:00;7.65;;;5.05;;
63959;SDS011;50136;51.374;0.096;2022-08-06T13:26:11;4.63;;;3.53;;
63959;SDS011;50136;51.374;0.096;2022-08-06T13:36:29;4.60;;;3.67;;
63959;SDS011;50136;51.374;0.096;2022-08-06T13:46:41;6.93;;;3.85;;
63959;SDS011;50136;51.374;0.096;2022-08-06T13:56:53;6.57;;;3.88;;
63959;SDS011;50136;51.374;0.096;2022-08-06T14:07:00;4.97;;;3.25;;
63959;SDS011;50136;51.374;0.096;2022-08-06T14:17:03;7.50;;;3.47;;
63959;SDS011;50136;51.374;0.096;2022-08-06T14:27:05;5.85;;;3.50;;
63959;SDS011;50136;51.374;0.096;2022-08-06T14:37:17;5.95;;;4.00;;
63959;SDS011;50136;51.374;0.096;2022-08-06T14:47:23;7.72;;;4.50;;
63959;SDS011;50136;51.374;0.096;2022-08-06T14:57:46;4.68;;;3.60;;
63959;SDS011;50136;51.374;0.096;2022-08-06T15:08:08;4.97;;;3.95;;
63959;SDS011;50136;51.374;0.096;2022-08-06T15:29:09;4.60;;;4.00;;
63959;SDS011;50136;51.374;0.096;2022-08-06T15:39:16;7.03;;;4.55;;
63959;SDS011;50136;51.374;0.096;2022-08-06T15:49:23;4.30;;;3.55;;
63959;SDS011;50136;51.374;0.096;2022-08-06T15:59:45;4.47;;;2.85;;
63959;SDS011;50136;51.374;0.096;2022-08-06T16:09:54;3.75;;;2.90;;
63959;SDS011;50136;51.374;0.096;2022-08-06T16:20:03;9.23;;;3.85;;
63959;SDS011;50136;51.374;0.096;2022-08-06T16:30:08;4.60;;;3.30;;
63959;SDS011;50136;51.374;0.096;2022-08-06T16:40:11;10.00;;;4.70;;
63959;SDS011;50136;51.374;0.096;2022-08-06T16:50:18;5.88;;;4.75;;
63959;SDS011;50136;51.374;0.096;2022-08-06T17:00:41;7.32;;;4.55;;
63959;SDS011;50136;51.374;0.096;2022-08-06T17:11:04;7.93;;;4.82;;
63959;SDS011;50136;51.374;0.096;2022-08-06T17:21:26;6.68;;;3.88;;
63959;SDS011;50136;51.374;0.096;2022-08-06T17:31:50;5.13;;;3.45;;
63959;SDS011;50136;51.374;0.096;2022-08-06T17:41:58;3.53;;;3.22;;
63959;SDS011;50136;51.374;0.096;2022-08-06T17:52:13;6.53;;;4.63;;
63959;SDS011;50136;51.374;0.096;2022-08-06T18:02:15;9.48;;;4.85;;
63959;SDS011;50136;51.374;0.096;2022-08-06T18:12:26;5.68;;;3.30;;
63959;SDS011;50136;51.374;0.096;2022-08-06T18:22:28;7.15;;;4.57;;
63959;SDS011;50136;51.374;0.096;2022-08-06T18:32:32;5.05;;;3.58;;
63959;SDS011;50136;51.374;0.096;2022-08-06T18:42:35;16.52;;;9.80;;
63959;SDS011;50136;51.374;0.096;2022-08-06T18:52:44;4.28;;;3.22;;
63959;SDS011;50136;51.374;0.096;2022-08-06T19:02:51;5.30;;;3.80;;
63959;SDS011;50136;51.374;0.096;2022-08-06T19:12:55;7.05;;;3.22;;
63959;SDS011;50136;51.374;0.096;2022-08-06T19:22:57;7.45;;;4.05;;
63959;SDS011;50136;51.374;0.096;2022-08-06T19:33:08;5.25;;;3.33;;
63959;SDS011;50136;51.374;0.096;2022-08-06T19:43:17;4.40;;;3.50;;
63959;SDS011;50136;51.374;0.096;2022-08-06T19:53:42;6.65;;;3.72;;
63959;SDS011;50136;51.374;0.096;2022-08-06T20:03:54;8.82;;;4.07;;
63959;SDS011;50136;51.374;0.096;2022-08-06T20:14:01;17.35;;;6.25;;
63959;SDS011;50136;51.374;0.096;2022-08-06T20:24:03;8.65;;;5.10;;
63959;SDS011;50136;51.374;0.096;2022-08-06T20:34:11;9.82;;;5.15;;
63959;SDS011;50136;51.374;0.096;2022-08-06T20:44:13;4.97;;;3.67;;
63959;SDS011;50136;51.374;0.096;2022-08-06T20:54:21;7.38;;;4.00;;
63959;SDS011;50136;51.374;0.096;2022-08-06T21:04:26;7.57;;;4.18;;
63959;SDS011;50136;51.374;0.096;2022-08-06T21:14:50;12.48;;;4.47;;
63959;SDS011;50136;51.374;0.096;2022-08-06T21:24:52;7.70;;;3.75;;
63959;SDS011;50136;51.374;0.096;2022-08-06T21:34:55;14.63;;;4.80;;
63959;SDS011;50136;51.374;0.096;2022-08-06T21:44:58;6.90;;;4.43;;
63959;SDS011;50136;51.374;0.096;2022-08-06T21:55:02;6.97;;;5.60;;
63959;SDS011;50136;51.374;0.096;2022-08-06T22:05:25;6.45;;;4.15;;
63959;SDS011;50136;51.374;0.096;2022-08-06T22:15:48;8.50;;;4.75;;
63959;SDS011;50136;51.374;0.096;2022-08-06T22:25:56;7.65;;;4.25;;
63959;SDS011;50136;51.374;0.096;2022-08-06T22:36:00;9.52;;;4.43;;
63959;SDS011;50136;51.374;0.096;2022-08-06T22:46:14;7.03;;;4.22;;
63959;SDS011;50136;51.374;0.096;2022-08-06T22:56:19;9.85;;;3.95;;
63959;SDS011;50136;51.374;0.096;2022-08-06T23:06:28;8.70;;;3.90;;
63959;SDS011;50136;51.374;0.096;2022-08-06T23:16:32;7.45;;;3.72;;
63959;SDS011;50136;51.374;0.096;2022-08-06T23:26:34;6.00;;;3.88;;
63959;SDS011;50136;51.374;0.096;2022-08-06T23:36:37;5.63;;;3.85;;
63959;SDS011;50136;51.374;0.096;2022-08-06T23:46:41;5.47;;;3.13;;
63959;SDS011;50136;51.374;0.096;2022-08-06T23:56:58;5.03;;;3.38;;
